Stewart Airport
CZST : now visible

Airfield :











YOU CAN JOIN US ON...

 
LOGIN :

Register | Disclaimer

   EN    FR    IT 

 









Legend :    VFR   Marginal VFR   IFR   Intensive IFR   Very Intensive IFR
Visi :
Ceiling :
>= 8 km
>= 3000ft
5 to 8 km
1000 to 3000 ft
1500m to 5 km
500 to 1000 ft
800 to 1500m
200 to 500 ft
< 800m
< 200 ft
Symbols :   Thunderstorms  Fog  Heavy snow  Heavy precipitations  Wind > 20 kt






- Airport Elevation : 24 ft
- IATA code : ZST


CZST - Stewart

CURRENT METAR :
  • 112031Z 03007KT 350V060 3SM -SN BKN055 OVC060 00/M01 A3012 RMK SN2SC4SC2 SLP200

EXPIRED METARs :
  • 112000Z 04009G16KT 360V060 1 1/2SM -SN OVC012 00/M01 A3013 RMK SN5SC3 /S03/ SLP205
  • 111911Z 05012G18KT 1SM -SN OVC010 00/M01 A3015 RMK SN5SC3 SLP212
  • 111900Z 04012G17KT 1/2SM SN VV008 M00/M01 A3015 RMK SN8 /S02/ SLP212
  • 111841Z 05010G15KT 1/2SM SN VV008 M00/M01 A3016 RMK SN8 SLP215
  • 111818Z 04009G15KT 350V090 3/4SM -SN OVC012 00/M02 A3016 RMK SN6SC2 SLP216
  • 111800Z 06006KT 020V090 3SM -SN BKN012 OVC020 01/M02 A3017 RMK SN3SC3SC2 SLP217

TAF N/A



MET'MAP, your aeronautical weather chart ! - Copyright ORBIFLY December 2007 - Disclaimer

ORBIFLY MET'MAP TEAM :

Programming & Development : Alexandra Zaïnal
Concept & Development : Baudouin d'Aumeries
Co-Development & Prog : Marc-Olivier Méhu
Technical & hardware support : Manuel Goepfert

Contact : metmap@orbifly.com




SOURCES & CREDITS :

   NOAA       Earth
Advisory